createdAt,value
2019-01-31T00:02:33.204Z,81.42
2019-01-31T00:05:10.647Z,81.14
2019-01-31T00:07:48.098Z,80.92
2019-01-31T00:10:19.535Z,80.72
2019-01-31T00:13:07.586Z,80.71
2019-01-31T00:15:56.866Z,80.59
2019-01-31T00:18:28.301Z,80.76
2019-01-31T00:21:08.965Z,80.95
2019-01-31T00:23:57.319Z,80.92
2019-01-31T00:26:31.950Z,80.94
2019-01-31T00:29:15.342Z,80.76
2019-01-31T00:32:05.157Z,80.52
2019-01-31T00:34:48.453Z,80.52
2019-01-31T00:37:40.932Z,80.51
2019-01-31T00:40:27.156Z,80.50
2019-01-31T00:43:05.036Z,79.96
2019-01-31T00:45:42.268Z,79.94
2019-01-31T00:48:27.968Z,79.74
2019-01-31T00:51:08.362Z,79.69
2019-01-31T00:53:59.130Z,79.72
2019-01-31T00:56:33.356Z,79.66
2019-01-31T00:59:39.570Z,79.74
2019-01-31T01:02:11.308Z,79.77
2019-01-31T01:05:02.344Z,79.69
2019-01-31T01:07:56.502Z,79.63
2019-01-31T01:10:36.958Z,79.56
2019-01-31T01:13:22.781Z,79.33
2019-01-31T01:16:00.238Z,79.16
2019-01-31T01:18:43.876Z,79.15
2019-01-31T01:21:32.122Z,79.23
2019-01-31T01:24:03.597Z,79.26
2019-01-31T01:26:47.411Z,79.37
2019-01-31T01:29:34.226Z,79.51
2019-01-31T01:32:27.090Z,79.58
2019-01-31T01:35:02.074Z,79.61
2019-01-31T01:37:33.754Z,79.72
2019-01-31T01:40:41.291Z,79.75
2019-01-31T01:43:18.755Z,79.76
2019-01-31T01:45:56.045Z,79.82
2019-01-31T01:48:30.073Z,79.92
2019-01-31T01:51:10.341Z,79.89
2019-01-31T01:53:53.962Z,79.94
2019-01-31T01:56:34.307Z,79.84
2019-01-31T01:59:21.987Z,80.20
2019-01-31T02:01:56.111Z,80.25
2019-01-31T02:04:39.391Z,80.26
2019-01-31T02:07:25.074Z,80.20
2019-01-31T02:10:23.612Z,80.21
2019-01-31T02:13:00.592Z,80.48
2019-01-31T02:15:56.251Z,80.49
2019-01-31T02:18:33.846Z,80.55
2019-01-31T02:21:41.247Z,80.39
2019-01-31T02:24:16.184Z,80.55
2019-01-31T02:27:12.203Z,80.56
2019-01-31T02:30:06.099Z,80.84
2019-01-31T02:33:01.593Z,80.97
2019-01-31T02:35:38.975Z,80.86
2019-01-31T02:38:10.412Z,81.00
2019-01-31T02:41:05.812Z,80.86
2019-01-31T02:43:49.459Z,80.82
2019-01-31T02:46:23.896Z,80.62
2019-01-31T02:48:55.577Z,80.43
2019-01-31T02:51:50.339Z,80.39
2019-01-31T02:54:36.684Z,80.33
2019-01-31T02:57:23.160Z,80.25
2019-01-31T03:00:10.989Z,80.17
2019-01-31T03:02:45.353Z,80.10
2019-01-31T03:05:19.515Z,80.08
2019-01-31T03:07:56.768Z,80.03
2019-01-31T03:10:30.959Z,80.02
2019-01-31T03:13:11.259Z,80.01
2019-01-31T03:15:57.569Z,80.03
2019-01-31T03:18:34.941Z,80.02
2019-01-31T03:21:24.229Z,79.96
2019-01-31T03:23:56.008Z,79.80
2019-01-31T03:26:36.437Z,79.75
2019-01-31T03:29:25.822Z,79.75
2019-01-31T03:32:06.103Z,79.67
2019-01-31T03:34:43.390Z,79.63
2019-01-31T03:37:23.499Z,79.75
2019-01-31T03:40:07.063Z,79.84
2019-01-31T03:43:08.643Z,79.88
2019-01-31T03:45:52.000Z,79.83
2019-01-31T03:48:29.138Z,79.75
2019-01-31T03:51:12.402Z,79.73
2019-01-31T03:54:07.498Z,79.74
2019-01-31T03:56:41.435Z,79.75
2019-01-31T03:59:22.035Z,79.82
2019-01-31T04:01:56.142Z,79.93
2019-01-31T04:04:36.342Z,79.94
2019-01-31T04:07:05.058Z,79.98
2019-01-31T04:09:33.802Z,80.02
2019-01-31T04:12:02.591Z,80.12
2019-01-31T04:14:30.995Z,80.17
2019-01-31T04:16:59.404Z,80.16
2019-01-31T04:19:27.943Z,80.13
2019-01-31T04:21:56.345Z,80.13
2019-01-31T04:24:24.812Z,80.11
2019-01-31T04:26:53.283Z,80.08
2019-01-31T04:29:21.773Z,80.06
2019-01-31T04:31:50.435Z,80.00
2019-01-31T04:34:19.227Z,80.10
2019-01-31T04:36:47.716Z,80.16
2019-01-31T04:39:16.433Z,80.27
2019-01-31T04:41:45.040Z,80.27
2019-01-31T04:44:13.455Z,80.29
2019-01-31T04:46:41.851Z,80.22
2019-01-31T04:49:10.527Z,80.18
2019-01-31T04:51:38.937Z,80.05
2019-01-31T04:54:07.361Z,79.99
2019-01-31T04:56:35.757Z,79.92
2019-01-31T04:59:04.321Z,79.79
2019-01-31T05:01:33.035Z,79.71
2019-01-31T05:04:01.659Z,79.68
2019-01-31T05:06:30.280Z,79.59
2019-01-31T05:08:58.915Z,79.40
2019-01-31T05:11:27.317Z,79.30
2019-01-31T05:13:55.716Z,79.24
2019-01-31T05:16:24.539Z,79.22
2019-01-31T05:18:52.965Z,79.25
2019-01-31T05:21:21.593Z,79.21
2019-01-31T05:23:49.999Z,79.11
2019-01-31T05:26:18.592Z,79.06
2019-01-31T05:28:46.996Z,79.02
2019-01-31T05:31:15.387Z,79.00
2019-01-31T05:33:43.777Z,78.88
2019-01-31T05:36:12.593Z,78.90
2019-01-31T05:38:41.233Z,78.90
2019-01-31T05:41:09.967Z,78.81
2019-01-31T05:43:38.952Z,78.81
2019-01-31T05:46:07.319Z,78.83
2019-01-31T05:48:36.025Z,78.84
2019-01-31T05:51:04.694Z,78.76
2019-01-31T05:53:33.160Z,78.70
2019-01-31T05:56:01.559Z,78.50
2019-01-31T05:58:29.958Z,78.50
2019-01-31T06:00:58.582Z,78.49
2019-01-31T06:03:27.000Z,78.63
2019-01-31T06:05:55.633Z,78.59
2019-01-31T06:08:24.029Z,78.54
2019-01-31T06:10:52.670Z,78.61
2019-01-31T06:13:21.194Z,78.52
2019-01-31T06:15:49.644Z,78.67
2019-01-31T06:18:18.092Z,78.85
2019-01-31T06:20:46.822Z,78.84
2019-01-31T06:23:15.293Z,78.92
2019-01-31T06:25:43.683Z,79.30
2019-01-31T06:28:13.024Z,79.25
2019-01-31T06:30:41.736Z,79.39
2019-01-31T06:33:10.364Z,79.16
2019-01-31T06:35:38.993Z,79.23
2019-01-31T06:38:07.386Z,79.11
2019-01-31T06:40:35.791Z,79.45
2019-01-31T06:43:04.473Z,79.35
2019-01-31T06:45:33.103Z,79.27
2019-01-31T06:48:01.724Z,79.10
2019-01-31T06:50:30.409Z,79.09
2019-01-31T06:52:58.804Z,79.03
2019-01-31T06:55:27.388Z,79.02
2019-01-31T06:57:55.785Z,78.92
2019-01-31T07:00:24.406Z,78.88
2019-01-31T07:02:52.855Z,78.98
2019-01-31T07:05:21.489Z,79.11
2019-01-31T07:07:50.105Z,78.95
2019-01-31T07:10:23.881Z,79.03
2019-01-31T07:12:52.563Z,79.07
2019-01-31T07:15:21.267Z,79.06
2019-01-31T07:17:50.050Z,79.24
2019-01-31T07:20:19.082Z,79.16
2019-01-31T07:22:47.840Z,79.09
2019-01-31T07:25:21.743Z,79.05
2019-01-31T07:27:50.136Z,79.15
2019-01-31T07:30:21.708Z,79.06
2019-01-31T07:32:50.257Z,78.99
2019-01-31T07:35:18.918Z,78.95
2019-01-31T07:37:47.620Z,79.02
2019-01-31T07:40:18.607Z,79.07
2019-01-31T07:42:47.289Z,79.00
2019-01-31T07:45:19.200Z,78.96
2019-01-31T07:47:47.822Z,79.00
2019-01-31T07:50:18.644Z,78.92
2019-01-31T07:52:47.217Z,78.97
2019-01-31T07:55:16.253Z,79.09
2019-01-31T07:57:44.648Z,79.11
2019-01-31T08:00:18.413Z,78.98
2019-01-31T08:02:46.871Z,79.08
2019-01-31T08:05:17.515Z,79.29
2019-01-31T08:07:46.204Z,79.23
2019-01-31T08:10:23.457Z,79.35
2019-01-31T08:12:52.155Z,79.39
2019-01-31T08:15:20.765Z,79.85
2019-01-31T08:17:49.312Z,80.24
2019-01-31T08:20:19.765Z,80.11
2019-01-31T08:22:48.309Z,80.57
2019-01-31T08:25:22.066Z,80.84
2019-01-31T08:27:51.620Z,80.97
2019-01-31T08:30:31.892Z,81.26
2019-01-31T08:33:00.348Z,81.47
2019-01-31T08:35:30.610Z,81.36
2019-01-31T08:37:59.234Z,81.59
2019-01-31T08:40:27.620Z,81.61
2019-01-31T08:42:56.088Z,81.71
2019-01-31T08:45:24.479Z,81.89
2019-01-31T08:47:52.862Z,82.17
2019-01-31T08:50:24.311Z,81.95
2019-01-31T08:52:52.701Z,81.87
2019-01-31T08:55:21.356Z,82.06
2019-01-31T08:57:50.139Z,82.07
2019-01-31T09:00:24.073Z,81.92
2019-01-31T09:02:52.551Z,81.82
2019-01-31T09:05:21.721Z,81.79
2019-01-31T09:07:50.337Z,81.78
2019-01-31T09:10:27.561Z,81.70
2019-01-31T09:12:57.002Z,81.29
2019-01-31T09:15:26.825Z,81.06
2019-01-31T09:17:55.701Z,80.68
2019-01-31T09:20:30.240Z,80.55
2019-01-31T09:23:07.510Z,80.15
2019-01-31T09:25:41.630Z,80.06
2019-01-31T09:28:18.698Z,79.70
2019-01-31T09:30:55.998Z,79.47
2019-01-31T09:33:36.275Z,79.54
2019-01-31T09:36:25.996Z,79.55
2019-01-31T09:39:15.560Z,79.28
2019-01-31T09:41:59.217Z,79.09
2019-01-31T09:44:50.467Z,78.92
2019-01-31T09:47:31.822Z,79.23
2019-01-31T09:50:12.671Z,78.77
2019-01-31T09:53:08.156Z,79.21
2019-01-31T09:55:51.456Z,79.16
2019-01-31T09:58:27.865Z,78.68
2019-01-31T10:01:28.707Z,78.61
2019-01-31T10:04:03.509Z,78.01
2019-01-31T10:06:59.218Z,77.77
2019-01-31T10:09:35.995Z,77.23
2019-01-31T10:12:19.089Z,77.06
2019-01-31T10:14:56.232Z,77.44
2019-01-31T10:17:53.399Z,76.96
2019-01-31T10:20:27.488Z,76.78
2019-01-31T10:23:01.906Z,77.03
2019-01-31T10:25:48.492Z,76.89
2019-01-31T10:28:35.507Z,76.82
2019-01-31T10:31:13.333Z,76.63
2019-01-31T10:33:44.883Z,76.66
2019-01-31T10:36:22.037Z,75.51
2019-01-31T10:39:02.493Z,75.19
2019-01-31T10:41:58.096Z,75.82
2019-01-31T10:44:55.444Z,75.69
2019-01-31T10:48:03.964Z,75.60
2019-01-31T10:50:47.435Z,75.92
2019-01-31T10:53:30.869Z,75.72
2019-01-31T10:56:17.329Z,75.44
2019-01-31T10:59:21.990Z,75.76
2019-01-31T11:02:26.661Z,75.49
2019-01-31T11:05:13.236Z,75.38
2019-01-31T11:07:54.004Z,74.83
2019-01-31T11:10:34.486Z,72.75
2019-01-31T11:13:18.341Z,71.25
2019-01-31T11:16:07.662Z,70.25
2019-01-31T11:18:42.743Z,69.02
2019-01-31T11:21:19.819Z,69.63
2019-01-31T11:24:06.122Z,69.26
2019-01-31T11:26:43.354Z,68.28
2019-01-31T11:29:22.244Z,68.60
2019-01-31T11:32:10.437Z,68.97
2019-01-31T11:35:09.557Z,68.70
2019-01-31T11:37:43.752Z,69.18
2019-01-31T11:40:18.191Z,67.75
2019-01-31T11:42:52.358Z,67.80
2019-01-31T11:45:44.747Z,68.35
2019-01-31T11:48:27.927Z,67.64
2019-01-31T11:51:22.197Z,67.08
2019-01-31T11:54:02.411Z,67.47
2019-01-31T11:56:39.700Z,66.76
2019-01-31T11:59:08.379Z,67.70
2019-01-31T12:01:37.484Z,67.64
2019-01-31T12:04:07.573Z,67.17
2019-01-31T12:06:36.105Z,67.39
2019-01-31T12:09:07.767Z,67.70
2019-01-31T12:11:36.390Z,67.61
2019-01-31T12:14:05.107Z,67.13
2019-01-31T12:16:33.488Z,67.89
2019-01-31T12:19:02.183Z,68.01
2019-01-31T12:21:30.582Z,68.60
2019-01-31T12:23:58.966Z,68.54
2019-01-31T12:26:27.354Z,68.48
2019-01-31T12:28:56.104Z,68.15
2019-01-31T12:31:24.570Z,67.69
2019-01-31T12:33:53.188Z,67.80
2019-01-31T12:36:21.857Z,67.80
2019-01-31T12:38:50.554Z,66.92
2019-01-31T12:41:18.927Z,67.75
2019-01-31T12:43:47.319Z,68.49
2019-01-31T12:46:15.977Z,68.61
2019-01-31T12:48:44.508Z,68.98
2019-01-31T12:51:12.912Z,67.77
2019-01-31T12:53:41.562Z,68.02
2019-01-31T12:56:10.161Z,68.58
2019-01-31T12:58:38.605Z,68.06
2019-01-31T13:01:07.414Z,68.28
2019-01-31T13:03:35.862Z,68.55
2019-01-31T13:06:05.158Z,68.94
2019-01-31T13:08:33.753Z,68.75
2019-01-31T13:11:02.147Z,69.49
2019-01-31T13:13:31.023Z,70.18
2019-01-31T13:15:59.596Z,70.49
2019-01-31T13:18:27.989Z,70.31
2019-01-31T13:20:56.448Z,71.48
2019-01-31T13:23:25.100Z,71.30
2019-01-31T13:25:53.843Z,71.37
2019-01-31T13:28:22.224Z,71.28
2019-01-31T13:30:50.627Z,71.49
2019-01-31T13:33:19.487Z,71.77
2019-01-31T13:35:47.958Z,71.99
2019-01-31T13:38:16.762Z,72.30
2019-01-31T13:40:45.549Z,72.39
2019-01-31T13:43:13.944Z,72.36
2019-01-31T13:45:42.542Z,72.72
2019-01-31T13:48:11.439Z,72.96
2019-01-31T13:50:39.824Z,72.83
2019-01-31T13:53:09.281Z,72.83
2019-01-31T13:55:37.916Z,73.22
2019-01-31T13:58:06.682Z,73.20
2019-01-31T14:00:35.369Z,73.16
2019-01-31T14:03:04.068Z,72.82
2019-01-31T14:05:32.525Z,72.97
2019-01-31T14:08:01.279Z,72.96
2019-01-31T14:10:29.994Z,73.25
2019-01-31T14:12:58.389Z,73.33
2019-01-31T14:15:34.118Z,73.48
2019-01-31T14:18:02.963Z,73.38
2019-01-31T14:20:31.377Z,73.48
2019-01-31T14:22:59.853Z,73.64
2019-01-31T14:25:28.543Z,73.48
2019-01-31T14:27:57.349Z,73.20
2019-01-31T14:30:28.088Z,73.42
2019-01-31T14:32:57.330Z,73.70
2019-01-31T14:35:26.006Z,73.62
2019-01-31T14:37:55.389Z,73.37
2019-01-31T14:40:23.907Z,72.96
2019-01-31T14:42:52.538Z,72.82
2019-01-31T14:45:21.002Z,72.89
2019-01-31T14:47:49.403Z,72.69
2019-01-31T14:50:23.736Z,72.95
2019-01-31T14:52:52.524Z,72.86
2019-01-31T14:55:21.041Z,72.56
2019-01-31T14:57:49.445Z,72.57
2019-01-31T15:00:25.996Z,72.65
2019-01-31T15:02:54.631Z,72.63
2019-01-31T15:05:23.447Z,72.51
2019-01-31T15:07:51.912Z,72.83
2019-01-31T15:10:25.892Z,73.20
2019-01-31T15:12:54.778Z,73.46
2019-01-31T15:15:23.475Z,73.72
2019-01-31T15:17:53.195Z,73.91
2019-01-31T15:20:36.066Z,73.97
2019-01-31T15:23:01.043Z,74.34
2019-01-31T15:25:29.576Z,74.81
2019-01-31T15:27:57.969Z,75.07
2019-01-31T15:30:36.572Z,75.42
2019-01-31T15:33:10.539Z,75.76
2019-01-31T15:35:38.931Z,76.06
2019-01-31T15:38:07.488Z,76.31
2019-01-31T15:40:42.385Z,76.40
2019-01-31T15:43:10.841Z,76.52
2019-01-31T15:45:39.221Z,76.82
2019-01-31T15:48:10.596Z,76.94
2019-01-31T15:50:39.010Z,77.07
2019-01-31T15:53:07.891Z,77.21
2019-01-31T15:55:36.514Z,77.23
2019-01-31T15:58:05.865Z,77.23
2019-01-31T16:00:38.940Z,77.39
2019-01-31T16:03:09.755Z,77.54
2019-01-31T16:05:38.375Z,77.66
2019-01-31T16:08:07.618Z,77.77
2019-01-31T16:10:36.025Z,77.89
2019-01-31T16:13:05.280Z,78.08
2019-01-31T16:15:33.683Z,78.29
2019-01-31T16:18:02.246Z,78.36
2019-01-31T16:20:30.657Z,78.43
2019-01-31T16:22:59.103Z,78.60
2019-01-31T16:25:27.561Z,78.75
2019-01-31T16:27:56.007Z,78.77
2019-01-31T16:30:24.944Z,78.81
2019-01-31T16:32:53.412Z,78.86
2019-01-31T16:35:21.867Z,79.00
2019-01-31T16:37:51.648Z,79.23
2019-01-31T16:40:20.182Z,79.15
2019-01-31T16:42:48.751Z,79.14
2019-01-31T16:45:18.204Z,79.38
2019-01-31T16:47:47.027Z,79.61
2019-01-31T16:50:23.783Z,79.68
2019-01-31T16:52:52.441Z,79.60
2019-01-31T16:55:28.729Z,79.54
2019-01-31T16:57:57.923Z,79.51
2019-01-31T17:00:29.489Z,79.66
2019-01-31T17:02:58.104Z,79.70
2019-01-31T17:05:29.110Z,79.76
2019-01-31T17:07:57.492Z,79.98
2019-01-31T17:10:26.044Z,80.17
2019-01-31T17:12:55.015Z,80.17
2019-01-31T17:15:24.104Z,80.32
2019-01-31T17:17:53.012Z,80.45
2019-01-31T17:20:30.647Z,80.65
2019-01-31T17:22:59.290Z,80.60
2019-01-31T17:25:27.894Z,80.62
2019-01-31T17:27:56.299Z,80.80
2019-01-31T17:30:27.475Z,80.72
2019-01-31T17:32:56.191Z,80.66
2019-01-31T17:35:25.431Z,80.66
2019-01-31T17:37:53.838Z,80.60
2019-01-31T17:40:25.186Z,80.78
2019-01-31T17:42:53.772Z,80.74
2019-01-31T17:45:30.069Z,80.83
2019-01-31T17:47:53.754Z,80.88
2019-01-31T17:50:22.432Z,80.96
2019-01-31T17:52:50.892Z,81.14
2019-01-31T17:55:21.892Z,81.41
2019-01-31T17:57:50.633Z,81.04
2019-01-31T18:00:24.466Z,80.75
2019-01-31T18:02:53.190Z,80.56
2019-01-31T18:05:21.664Z,80.81
2019-01-31T18:07:50.236Z,80.93
2019-01-31T18:10:21.167Z,80.94
2019-01-31T18:12:49.724Z,81.26
2019-01-31T18:15:18.293Z,81.33
2019-01-31T18:17:46.700Z,81.25
2019-01-31T18:20:17.530Z,81.21
2019-01-31T18:22:45.921Z,81.35
2019-01-31T18:25:14.790Z,81.37
2019-01-31T18:27:43.419Z,81.60
2019-01-31T18:30:20.927Z,81.54
2019-01-31T18:32:49.450Z,81.70
2019-01-31T18:35:18.732Z,81.97
2019-01-31T18:37:47.242Z,82.01
2019-01-31T18:40:24.523Z,81.94
2019-01-31T18:42:53.265Z,82.04
2019-01-31T18:45:23.906Z,82.25
2019-01-31T18:47:52.670Z,82.17
2019-01-31T18:50:38.288Z,82.25
2019-01-31T18:53:07.049Z,82.30
2019-01-31T18:55:35.993Z,82.24
2019-01-31T18:58:05.476Z,82.16
2019-01-31T19:00:38.325Z,82.10
2019-01-31T19:03:07.115Z,81.95
2019-01-31T19:05:35.721Z,81.86
2019-01-31T19:08:08.681Z,81.66
2019-01-31T19:10:42.914Z,81.60
2019-01-31T19:13:06.147Z,81.41
2019-01-31T19:15:34.701Z,81.27
2019-01-31T19:18:06.098Z,81.37
2019-01-31T19:20:33.651Z,81.35
2019-01-31T19:23:07.154Z,81.52
2019-01-31T19:25:35.756Z,81.59
2019-01-31T19:28:05.133Z,81.69
2019-01-31T19:30:39.014Z,81.69
2019-01-31T19:33:07.979Z,81.52
2019-01-31T19:35:36.916Z,81.71
2019-01-31T19:38:06.554Z,81.75
2019-01-31T19:40:40.223Z,81.87
2019-01-31T19:43:08.616Z,81.94
2019-01-31T19:45:42.926Z,81.95
2019-01-31T19:48:12.272Z,82.11
2019-01-31T19:50:43.454Z,82.22
2019-01-31T19:53:11.151Z,82.28
2019-01-31T19:55:39.671Z,82.15
2019-01-31T19:58:08.218Z,82.35
2019-01-31T20:00:36.769Z,82.21
2019-01-31T20:03:06.516Z,82.36
2019-01-31T20:05:35.760Z,82.24
2019-01-31T20:08:05.643Z,82.29
2019-01-31T20:10:34.169Z,82.15
2019-01-31T20:13:02.638Z,82.01
2019-01-31T20:15:31.411Z,81.92
2019-01-31T20:17:59.914Z,81.80
2019-01-31T20:20:29.673Z,81.73
2019-01-31T20:22:59.385Z,81.60
2019-01-31T20:25:29.426Z,81.55
2019-01-31T20:27:58.222Z,81.40
2019-01-31T20:30:31.574Z,81.24
2019-01-31T20:33:01.447Z,81.04
2019-01-31T20:35:30.592Z,81.04
2019-01-31T20:37:59.354Z,80.95
2019-01-31T20:40:30.798Z,80.77
2019-01-31T20:42:59.550Z,80.95
2019-01-31T20:45:28.386Z,81.05
2019-01-31T20:47:57.067Z,80.77
2019-01-31T20:50:28.424Z,80.65
2019-01-31T20:52:57.651Z,80.74
2019-01-31T20:55:26.776Z,80.75
2019-01-31T20:57:55.277Z,80.72
2019-01-31T21:00:36.190Z,80.60
2019-01-31T21:03:06.848Z,80.24
2019-01-31T21:05:35.657Z,80.09
2019-01-31T21:08:05.231Z,80.12
2019-01-31T21:10:34.021Z,80.04
2019-01-31T21:13:02.864Z,79.89
2019-01-31T21:15:31.626Z,79.62
2019-01-31T21:18:00.033Z,79.61
2019-01-31T21:20:28.769Z,79.41
2019-01-31T21:22:57.723Z,79.24
2019-01-31T21:25:26.127Z,79.09
2019-01-31T21:27:54.532Z,79.10
2019-01-31T21:30:28.623Z,79.09
2019-01-31T21:32:57.182Z,78.88
2019-01-31T21:35:26.717Z,78.77
2019-01-31T21:37:55.180Z,78.73
2019-01-31T21:40:25.809Z,78.71
2019-01-31T21:42:54.214Z,78.81
2019-01-31T21:45:24.126Z,78.47
2019-01-31T21:47:52.755Z,78.43
2019-01-31T21:50:24.245Z,78.22
2019-01-31T21:52:52.867Z,78.50
2019-01-31T21:55:21.516Z,78.18
2019-01-31T21:57:50.040Z,78.22
2019-01-31T22:00:26.741Z,78.32
2019-01-31T22:02:55.296Z,78.43
2019-01-31T22:05:23.975Z,78.26
2019-01-31T22:07:52.485Z,77.99
2019-01-31T22:10:21.785Z,77.96
2019-01-31T22:12:50.234Z,77.84
2019-01-31T22:15:24.076Z,77.79
2019-01-31T22:17:53.256Z,77.82
2019-01-31T22:20:21.639Z,77.72
2019-01-31T22:22:50.028Z,77.65
2019-01-31T22:25:23.509Z,77.75
2019-01-31T22:27:51.912Z,77.92
2019-01-31T22:30:28.675Z,77.64
2019-01-31T22:32:57.153Z,77.58
2019-01-31T22:35:25.720Z,77.62
2019-01-31T22:37:54.417Z,77.31
2019-01-31T22:40:22.976Z,77.27
2019-01-31T22:42:51.539Z,77.29
2019-01-31T22:45:24.418Z,77.22
2019-01-31T22:47:53.244Z,77.16
2019-01-31T22:50:23.483Z,76.78
2019-01-31T22:52:52.045Z,76.76
2019-01-31T22:55:25.471Z,76.78
2019-01-31T22:57:54.410Z,76.75
2019-01-31T23:00:45.874Z,76.94
2019-01-31T23:03:15.080Z,76.95
2019-01-31T23:05:43.470Z,76.79
2019-01-31T23:08:11.861Z,76.66
2019-01-31T23:10:40.552Z,76.76
2019-01-31T23:13:08.901Z,76.58
2019-01-31T23:15:37.285Z,76.38
2019-01-31T23:18:07.026Z,76.40
2019-01-31T23:20:35.670Z,76.33
2019-01-31T23:23:04.616Z,76.35
2019-01-31T23:25:39.859Z,76.42
2019-01-31T23:28:03.110Z,76.47
2019-01-31T23:30:31.988Z,75.74
2019-01-31T23:33:00.640Z,76.11
2019-01-31T23:35:29.024Z,76.11
2019-01-31T23:37:57.425Z,75.96
2019-01-31T23:40:25.828Z,75.90
2019-01-31T23:42:54.603Z,75.86
2019-01-31T23:45:23.072Z,75.57
2019-01-31T23:47:51.522Z,75.45
2019-01-31T23:50:19.907Z,75.76
2019-01-31T23:52:48.587Z,75.50
2019-01-31T23:55:18.196Z,75.19
2019-01-31T23:57:46.580Z,75.19
